Wetter

Nordholz:

METAR:

2018/10/19 10:20 ETMN 191020Z 08004KT 9999 FEW026 SCT300 11/05 Q1027 BLU+BLU+

TAF:

2018/10/19 11:32 TAF ETMN 191025Z 1911/1920 VRB03KT 9999 NSW FEW025 SCT030= TAF ETNH 191000Z 1911/1923 29005KT 9999 NSW FEW030 SCT300 BY ETGL

Wind EDXN:

19.10. 10:00z 100/06kt
19.10. 10:10z 070/10kt
19.10. 10:20z 110/06G11kt 050V140
19.10. 10:30z 060/06G09kt
19.10. 10:40z 030/09kt
19.10. 10:50z 040/03G10kt
19.10. 11:00z 040/04kt 350V080
19.10. 11:10z 070/04G09kt
19.10. 11:20z 090/04G10kt
19.10. 11:30z 060/07kt

Bremen:

METAR:

2018/10/19 11:20 EDDW 191120Z 12003KT 090V160 9999 SCT029 12/05 Q1026 NOSIG

TAF:

2018/10/19 06:27 TAF EDDW 190500Z 1906/2006 04003KT 9999 SCT030 TEMPO 1922/2006 2500 BR PROB30 TEMPO 1922/2006 0500 FG

Hamburg:

METAR:

2018/10/19 10:50 EDDH 191050Z 27003KT 220V340 9999 SCT025 13/05 Q1026 NOSIG

TAF:

2018/10/19 06:27 TAF EDDH 190500Z 1906/2012 34003KT 9999 SCT030 TEMPO 1922/2008 2500 BR

Hannover:

METAR:

2018/10/19 10:50 EDDV 191050Z 05005KT 020V090 9999 FEW028 13/06 Q1026 NOSIG

TAF:

2018/10/19 06:27 TAF EDDV 190500Z 1906/2006 06004KT 9999 FEW035 TEMPO 1922/2006 2500 BR

Wikipedia Artikel: METARTAF

Daten von Aviation Weather Center der NOAA, es kann keine Garantie für Aktualität und Richtigkeit der Daten übernommen werden.

Die Nutzung dieser Daten zur Flugplanung ist nicht zulässig!

Inoffizielle ATIS 🙂